Airfield :
LOGIN :

Register | Disclaimer

   EN    FR    IT 

 










Legend :    VFR   Marginal VFR   IFR   Intensive IFR   Very Intensive IFR
Visi :
Ceiling :
>= 8 km
>= 3000ft
5 to 8 km
1000 to 3000 ft
1500m to 5 km
500 to 1000 ft
800 to 1500m
200 to 500 ft
< 800m
< 200 ft
Symbols :   Thunderstorms  Fog  Heavy snow  Heavy precipitations  Wind > 20 kt
SIGMETs :     Misc.  Thunderstorms  Icing  Turbulence  Mountain Waves  Volcanic Ashes






- Airport Elevation : 382 ft
- IATA code : CAI


HECA - Cairo Int.

CURRENT METAR :
  • 141330Z 21011KT CAVOK 31/08 Q1010 NOSIG

EXPIRED METARs :
  • 141230Z 20013KT CAVOK 32/08 Q1010 NOSIG
  • 141200Z 20012KT CAVOK 32/09 Q1010 NOSIG
  • 141130Z 20012KT 6000 NSC 31/09 Q1010 NOSIG
  • 141100Z 21012KT 6000 NSC 32/09 Q1010 NOSIG

TAF TAF HECA
Valid from the 14 at 12:00 until the 15 at 18:00 UTC


141120Z 1412/1518 25008KT 6000 NSC
TEMPO 1412/1418 20010G20KT 4000 SA



MET'MAP, your aeronautical weather chart ! - Copyright ORBIFLY December 2007 - Disclaimer

ORBIFLY MET'MAP TEAM :

Programming & Development : Alexandra Zaïnal
Concept & Development : Baudouin d'Aumeries
Co-Development & Prog : Marc-Olivier Méhu
Technical & hardware support : Manuel Goepfert

Contact : metmap@orbifly.com




SOURCES & CREDITS :

   NOAA